Time;durP1;ratioP1;P1;durP2;ratioP2;P2;SDS_P1;SDS_P2;PMS_P1;PMS_P2;Temp;Humidity;BMP_temperature;BMP_pressure;BME280_temperature;BME280_humidity;BME280_pressure;Samples;Min_cycle;Max_cycle;Signal;HPM_P1;HPM_P2
2022/01/29 00:01:31;;;;;;;35.40;18.17;;;;;;;5.25;96.70;102841.38;5091855;28;20047;-68
2022/01/29 00:03:57;;;;;;;39.03;17.80;;;;;;;5.31;96.87;102854.16;5091485;28;20028;-67
2022/01/29 00:06:22;;;;;;;38.90;15.88;;;;;;;5.32;96.84;102847.06;5091831;28;20055;-67
2022/01/29 00:08:48;;;;;;;36.75;16.77;;;;;;;5.31;97.04;102838.28;5091851;28;20038;-67
2022/01/29 00:11:15;;;;;;;38.17;17.17;;;;;;;5.36;97.00;102838.78;5090196;28;20633;-67
2022/01/29 00:13:42;;;;;;;39.50;17.35;;;;;;;5.38;96.84;102828.09;5090955;28;20119;-68
2022/01/29 00:16:07;;;;;;;31.35;15.43;;;;;;;5.39;96.94;102843.84;5091524;28;20046;-67
2022/01/29 00:18:34;;;;;;;33.97;15.43;;;;;;;5.36;96.45;102830.00;5091527;28;20020;-67
2022/01/29 00:20:59;;;;;;;33.47;17.10;;;;;;;5.38;96.67;102823.66;5091427;28;20506;-67
2022/01/29 00:23:24;;;;;;;30.92;13.82;;;;;;;5.42;96.63;102832.19;5091334;28;20051;-67
2022/01/29 00:25:50;;;;;;;40.60;18.83;;;;;;;5.42;96.81;102826.91;5090988;28;20478;-67
2022/01/29 00:28:15;;;;;;;35.00;19.27;;;;;;;5.45;96.54;102821.41;5091439;28;20502;-68
2022/01/29 00:30:43;;;;;;;37.28;18.98;;;;;;;5.45;96.79;102814.31;5091166;28;20479;-67
2022/01/29 00:33:12;;;;;;;40.20;18.05;;;;;;;5.45;97.10;102818.75;5091100;28;20032;-67
2022/01/29 00:35:39;;;;;;;39.60;18.65;;;;;;;5.45;96.92;102810.81;5091163;28;20028;-67
2022/01/29 00:38:05;;;;;;;38.05;17.83;;;;;;;5.40;96.84;102805.88;5072223;28;20032;-67
2022/01/29 00:40:31;;;;;;;36.90;17.65;;;;;;;5.40;96.92;102805.88;5070024;28;20032;-67
2022/01/29 00:42:58;;;;;;;37.20;17.60;;;;;;;5.43;97.32;102799.50;5090661;28;20031;-67
2022/01/29 00:45:25;;;;;;;38.90;17.92;;;;;;;5.42;97.69;102809.25;5091317;28;20574;-67
2022/01/29 00:47:50;;;;;;;40.72;19.23;;;;;;;5.43;97.38;102802.97;5090940;28;20035;-67
2022/01/29 00:50:15;;;;;;;35.90;18.00;;;;;;;5.41;97.83;102789.00;5090817;28;20028;-67
2022/01/29 00:52:41;;;;;;;37.67;18.88;;;;;;;5.44;97.50;102793.25;5090898;28;20028;-67
2022/01/29 00:55:08;;;;;;;37.22;20.00;;;;;;;5.45;97.70;102781.72;5090180;28;20055;-67
2022/01/29 00:57:35;;;;;;;35.90;17.42;;;;;;;5.38;97.62;102780.47;5090370;28;20112;-67
2022/01/29 01:00:01;;;;;;;39.83;17.98;;;;;;;5.44;97.45;102780.00;5073067;28;20029;-67
2022/01/29 01:02:26;;;;;;;38.00;18.10;;;;;;;5.46;97.85;102776.28;5071090;28;20050;-67
2022/01/29 01:04:51;;;;;;;36.40;16.60;;;;;;;5.47;97.92;102771.84;5070977;28;20117;-67
2022/01/29 01:07:17;;;;;;;40.65;18.80;;;;;;;5.41;97.78;102744.03;5071179;28;20036;-67
2022/01/29 01:09:42;;;;;;;33.35;18.63;;;;;;;5.40;98.36;102739.72;5071103;28;20077;-67
2022/01/29 01:12:08;;;;;;;34.25;16.63;;;;;;;5.46;98.18;102748.97;5071203;28;20032;-69
2022/01/29 01:14:34;;;;;;;36.83;18.77;;;;;;;5.42;98.41;102735.16;5070999;28;20024;-67
2022/01/29 01:16:59;;;;;;;36.05;16.75;;;;;;;5.42;98.47;102726.34;5071029;28;20033;-67
2022/01/29 01:19:26;;;;;;;33.97;18.75;;;;;;;5.41;98.91;102730.81;5070896;28;20115;-68
2022/01/29 01:21:56;;;;;;;36.72;18.98;;;;;;;5.41;99.03;102722.03;5090361;28;20172;-67
2022/01/29 01:24:22;;;;;;;42.05;21.13;;;;;;;5.41;98.72;102714.94;5090126;28;20040;-67
2022/01/29 01:26:48;;;;;;;37.10;19.42;;;;;;;5.41;99.03;102709.63;5088530;28;20047;-67
2022/01/29 01:29:14;;;;;;;35.70;17.30;;;;;;;5.40;99.13;102709.78;5090230;28;20031;-68
2022/01/29 01:31:40;;;;;;;36.97;17.77;;;;;;;5.43;99.11;102707.72;5090054;28;20028;-67
2022/01/29 01:34:06;;;;;;;36.83;18.67;;;;;;;5.42;99.05;102703.41;5073114;28;20501;-68
2022/01/29 01:36:35;;;;;;;42.17;20.50;;;;;;;5.45;99.47;102697.03;5070627;28;20024;-68
2022/01/29 01:39:06;;;;;;;38.03;19.70;;;;;;;5.43;99.66;102691.84;5089629;28;20046;-68
2022/01/29 01:41:37;;;;;;;40.67;17.93;;;;;;;5.45;99.74;102694.38;5089999;28;20467;-68
2022/01/29 01:44:04;;;;;;;38.22;19.75;;;;;;;5.44;99.83;102695.31;5089795;28;20542;-67
2022/01/29 01:46:30;;;;;;;34.88;15.38;;;;;;;5.45;100.00;102695.22;5089876;28;20093;-67
2022/01/29 01:48:57;;;;;;;39.80;18.13;;;;;;;5.45;100.00;102689.94;5089727;28;20066;-67
2022/01/29 01:51:23;;;;;;;40.35;19.23;;;;;;;5.44;100.00;102682.09;5089662;28;20169;-67
2022/01/29 01:53:48;;;;;;;36.78;19.02;;;;;;;5.43;99.89;102678.63;5089739;28;20035;-67
2022/01/29 01:56:14;;;;;;;37.70;17.92;;;;;;;5.49;99.87;102680.78;5089105;28;20123;-67
2022/01/29 01:58:40;;;;;;;35.80;16.73;;;;;;;5.49;99.58;102677.28;5089655;28;20497;-68
2022/01/29 02:01:05;;;;;;;39.22;15.70;;;;;;;5.47;99.89;102680.03;5089684;28;20399;-67
2022/01/29 02:03:31;;;;;;;34.95;17.10;;;;;;;5.46;100.00;102675.72;5089504;28;20065;-68
2022/01/29 02:05:57;;;;;;;34.53;15.98;;;;;;;5.45;100.00;102670.56;5089632;28;20044;-67
2022/01/29 02:08:24;;;;;;;39.50;17.70;;;;;;;5.47;100.00;102673.91;5089751;28;20032;-67
2022/01/29 02:10:50;;;;;;;35.53;16.60;;;;;;;5.45;100.00;102667.94;5089380;28;20027;-67
2022/01/29 02:13:16;;;;;;;33.58;18.10;;;;;;;5.43;100.00;102668.03;5089485;28;20028;-67
2022/01/29 02:15:41;;;;;;;31.08;13.95;;;;;;;5.41;100.00;102662.00;5088112;28;20364;-67
2022/01/29 02:18:14;;;;;;;38.28;15.73;;;;;;;5.38;100.00;102659.59;5088074;28;20501;-67
2022/01/29 02:20:41;;;;;;;34.90;17.70;;;;;;;5.38;100.00;102656.13;5087824;28;20383;-67
2022/01/29 02:23:06;;;;;;;40.35;18.10;;;;;;;5.37;100.00;102646.47;5089134;28;20115;-67
2022/01/29 02:25:47;;;;;;;34.03;16.15;;;;;;;5.38;100.00;102648.19;5088690;28;20558;-67
2022/01/29 02:28:24;;;;;;;35.30;14.98;;;;;;;5.32;100.00;102638.06;5088766;28;20471;-68
2022/01/29 02:30:57;;;;;;;31.27;16.45;;;;;;;5.34;100.00;102644.91;5089504;28;20028;-67
2022/01/29 02:33:23;;;;;;;32.72;15.95;;;;;;;5.31;100.00;102641.66;5089128;28;20020;-67
2022/01/29 02:35:50;;;;;;;31.35;15.70;;;;;;;5.33;100.00;102642.41;5089457;28;20024;-68
2022/01/29 02:38:19;;;;;;;31.27;16.48;;;;;;;5.32;100.00;102633.63;5089039;28;20032;-68
2022/01/29 02:40:53;;;;;;;31.95;16.17;;;;;;;5.32;100.00;102632.75;5089538;28;20028;-68
2022/01/29 02:43:26;;;;;;;32.13;15.73;;;;;;;5.30;100.00;102632.91;5089256;28;20047;-67
2022/01/29 02:45:53;;;;;;;34.03;15.70;;;;;;;5.32;100.00;102624.81;5089144;28;21162;-68
2022/01/29 02:48:20;;;;;;;33.83;17.73;;;;;;;5.27;100.00;102615.47;5089181;28;20024;-68
2022/01/29 02:50:47;;;;;;;28.65;15.35;;;;;;;5.25;100.00;102624.47;5089180;28;20499;-68
2022/01/29 02:53:12;;;;;;;30.15;16.55;;;;;;;5.26;100.00;102626.97;5089223;28;20089;-68
2022/01/29 02:55:38;;;;;;;29.63;15.13;;;;;;;5.26;100.00;102623.50;5088724;28;20027;-67
2022/01/29 02:58:04;;;;;;;32.53;14.40;;;;;;;5.24;100.00;102605.13;5088931;28;20078;-68
2022/01/29 03:00:29;;;;;;;31.92;16.30;;;;;;;5.24;100.00;102609.56;5088866;28;20482;-67
2022/01/29 03:02:55;;;;;;;30.88;14.85;;;;;;;5.22;100.00;102603.56;5088921;28;20429;-67
2022/01/29 03:05:21;;;;;;;32.03;14.60;;;;;;;5.22;100.00;102604.38;5089014;28;20051;-67
2022/01/29 03:07:46;;;;;;;30.48;14.73;;;;;;;5.24;100.00;102602.47;5088882;28;20060;-67
2022/01/29 03:10:12;;;;;;;32.03;13.20;;;;;;;5.26;100.00;102602.34;5088948;28;20036;-67
2022/01/29 03:12:40;;;;;;;28.98;13.45;;;;;;;5.29;100.00;102594.16;5088753;28;20114;-67
2022/01/29 03:15:07;;;;;;;31.40;15.02;;;;;;;5.31;100.00;102592.25;5088910;28;20051;-67
2022/01/29 03:17:32;;;;;;;32.15;15.50;;;;;;;5.35;100.00;102591.06;5088795;28;20042;-67
2022/01/29 03:19:57;;;;;;;30.08;13.63;;;;;;;5.34;100.00;102578.78;5087430;28;20032;-67
2022/01/29 03:22:23;;;;;;;27.45;12.55;;;;;;;5.36;100.00;102576.84;5088800;28;20053;-67
2022/01/29 03:24:48;;;;;;;26.60;13.02;;;;;;;5.40;100.00;102578.31;5087933;28;20032;-67
2022/01/29 03:27:13;;;;;;;29.15;13.18;;;;;;;5.35;100.00;102569.88;5067444;28;20063;-67
2022/01/29 03:29:39;;;;;;;28.10;12.18;;;;;;;5.40;100.00;102566.88;5069060;28;20427;-67
2022/01/29 03:32:04;;;;;;;26.88;13.23;;;;;;;5.40;100.00;102572.19;5069382;28;20028;-67
2022/01/29 03:34:30;;;;;;;30.05;13.88;;;;;;;5.38;100.00;102555.56;5068118;28;20036;-67
2022/01/29 03:36:56;;;;;;;28.65;13.18;;;;;;;5.42;100.00;102565.81;5069440;28;20025;-67
2022/01/29 03:39:24;;;;;;;26.25;13.23;;;;;;;5.44;100.00;102563.03;5088541;28;20036;-67
2022/01/29 03:41:49;;;;;;;27.70;13.93;;;;;;;5.44;100.00;102563.03;5088655;28;20032;-67
2022/01/29 03:44:15;;;;;;;29.17;14.30;;;;;;;5.46;100.00;102554.00;5088423;28;20096;-67
2022/01/29 03:46:40;;;;;;;28.15;13.77;;;;;;;5.49;100.00;102551.13;5088241;28;20032;-67
2022/01/29 03:49:06;;;;;;;28.83;12.68;;;;;;;5.48;100.00;102554.72;5089477;28;20066;-67
2022/01/29 03:51:31;;;;;;;28.83;14.00;;;;;;;5.50;100.00;102538.72;5091015;28;20023;-67
2022/01/29 03:53:56;;;;;;;34.00;15.35;;;;;;;5.52;100.00;102551.84;5092162;28;20059;-68
2022/01/29 03:56:22;;;;;;;34.50;14.55;;;;;;;5.43;100.00;102534.91;5090312;28;20486;-67
2022/01/29 03:58:47;;;;;;;30.35;14.38;;;;;;;5.54;100.00;102547.28;5090174;28;20379;-68
2022/01/29 04:01:13;;;;;;;35.55;15.13;;;;;;;5.55;100.00;102544.47;5091896;28;20074;-67
2022/01/29 04:03:38;;;;;;;33.33;14.77;;;;;;;5.55;100.00;102549.78;5091991;28;20028;-67
2022/01/29 04:06:04;;;;;;;32.90;14.43;;;;;;;5.58;100.00;102543.41;5091725;28;20020;-67
2022/01/29 04:08:31;;;;;;;30.92;15.60;;;;;;;5.55;100.00;102549.78;5091700;28;20111;-68
2022/01/29 04:10:56;;;;;;;31.90;14.85;;;;;;;5.58;100.00;102543.41;5091831;28;20036;-67
2022/01/29 04:13:24;;;;;;;32.88;15.10;;;;;;;5.54;100.00;102536.69;5091438;28;20452;-67
2022/01/29 04:15:50;;;;;;;34.40;16.77;;;;;;;5.58;100.00;102538.09;5090573;28;20137;-67
2022/01/29 04:18:15;;;;;;;31.63;15.80;;;;;;;5.60;100.00;102542.31;5091040;28;20028;-67
2022/01/29 04:20:40;;;;;;;33.10;16.42;;;;;;;5.59;100.00;102548.59;5090193;28;20043;-67
2022/01/29 04:23:07;;;;;;;29.13;13.10;;;;;;;5.61;100.00;102535.25;5091608;28;20024;-67
2022/01/29 04:25:32;;;;;;;30.60;15.20;;;;;;;5.62;100.00;102531.63;5091120;28;20079;-67
2022/01/29 04:27:58;;;;;;;31.25;15.27;;;;;;;5.60;100.00;102534.38;5091100;28;20047;-67
2022/01/29 04:30:32;;;;;;;32.85;14.43;;;;;;;5.55;100.00;102514.53;5090807;28;20056;-67
2022/01/29 04:33:28;;;;;;;30.45;14.02;;;;;;;5.64;100.00;102522.59;5091129;28;20020;-67
2022/01/29 04:35:54;;;;;;;30.95;13.10;;;;;;;5.66;100.00;102533.91;5091226;28;20496;-67
2022/01/29 04:38:20;;;;;;;28.92;12.63;;;;;;;5.67;100.00;102532.94;5069702;28;20033;-67
2022/01/29 04:40:45;;;;;;;31.33;15.23;;;;;;;5.68;100.00;102528.47;5071928;28;20060;-68
2022/01/29 04:43:11;;;;;;;32.95;15.00;;;;;;;5.69;100.00;102514.28;5091135;28;20890;-67
2022/01/29 04:45:36;;;;;;;29.80;14.25;;;;;;;5.73;100.00;102513.06;5089677;28;20032;-68
2022/01/29 04:48:02;;;;;;;29.25;12.25;;;;;;;5.69;100.00;102507.19;5091086;28;20363;-67
2022/01/29 04:50:27;;;;;;;33.47;16.05;;;;;;;5.75;100.00;102513.78;5091004;28;20039;-67
2022/01/29 04:52:53;;;;;;;28.00;12.57;;;;;;;5.74;100.00;102506.81;5091022;28;20037;-67
2022/01/29 04:55:18;;;;;;;25.98;12.13;;;;;;;5.76;100.00;102498.72;5090741;28;20034;-67
2022/01/29 04:57:44;;;;;;;29.20;13.13;;;;;;;5.76;100.00;102491.63;5091062;28;20024;-67
2022/01/29 05:00:12;;;;;;;39.63;14.45;;;;;;;5.79;100.00;102495.84;5089795;28;20032;-67
2022/01/29 05:02:38;;;;;;;29.63;13.65;;;;;;;5.80;100.00;102486.94;5090629;28;20387;-68
2022/01/29 05:05:05;;;;;;;29.73;14.02;;;;;;;5.79;100.00;102478.16;5089346;28;20027;-67
2022/01/29 05:07:31;;;;;;;28.52;13.60;;;;;;;5.79;100.00;102472.88;5090543;28;20035;-67
2022/01/29 05:09:57;;;;;;;28.05;14.35;;;;;;;5.86;100.00;102478.50;5090247;28;20854;-67
2022/01/29 05:12:28;;;;;;;30.67;14.65;;;;;;;5.86;100.00;102481.97;5090695;28;20032;-67
2022/01/29 05:28:05;;;;;;;27.83;12.85;;;;;;;5.95;100.00;102471.63;5090157;28;20066;-67
2022/01/29 05:30:31;;;;;;;32.22;14.63;;;;;;;5.98;100.00;102480.19;5090187;28;20221;-67
2022/01/29 05:32:56;;;;;;;30.67;14.00;;;;;;;5.99;100.00;102473.91;5089726;28;20020;-68
2022/01/29 05:35:21;;;;;;;33.00;14.52;;;;;;;6.01;100.00;102471.97;5090084;28;20162;-67
2022/01/29 05:37:50;;;;;;;30.08;15.45;;;;;;;6.01;100.00;102452.59;5090098;28;20028;-68
2022/01/29 05:40:15;;;;;;;44.47;19.75;;;;;;;6.05;100.00;102465.47;5069154;28;20036;-67
2022/01/29 05:42:41;;;;;;;35.03;16.90;;;;;;;6.02;100.00;102455.09;5070653;28;20123;-68
2022/01/29 05:45:06;;;;;;;31.55;16.27;;;;;;;6.05;100.00;102468.13;5070658;28;20029;-67
2022/01/29 05:47:32;;;;;;;31.05;15.07;;;;;;;6.08;100.00;102464.38;5088734;28;20039;-67
2022/01/29 05:49:57;;;;;;;32.28;13.40;;;;;;;6.11;100.00;102467.59;5089946;28;20043;-68
2022/01/29 05:52:22;;;;;;;32.05;15.43;;;;;;;6.11;100.00;102464.94;5089880;28;20036;-67
2022/01/29 05:54:48;;;;;;;35.10;17.52;;;;;;;6.08;100.00;102462.56;5090043;28;20036;-67
2022/01/29 05:57:14;;;;;;;31.45;14.75;;;;;;;6.12;100.00;102463.97;5089620;28;20109;-67
2022/01/29 05:59:39;;;;;;;31.85;15.60;;;;;;;6.16;100.00;102464.56;5078185;28;20113;-67
2022/01/29 06:02:04;;;;;;;32.80;15.55;;;;;;;6.17;100.00;102452.16;5068404;28;20024;-68
2022/01/29 06:04:30;;;;;;;32.60;14.25;;;;;;;6.20;100.00;102459.84;5070278;28;20032;-68
2022/01/29 06:06:55;;;;;;;32.97;15.98;;;;;;;6.20;100.00;102438.66;5070166;28;20391;-67
2022/01/29 06:09:21;;;;;;;34.25;17.40;;;;;;;6.22;100.00;102445.50;5070237;28;20029;-67
2022/01/29 06:11:46;;;;;;;34.33;16.45;;;;;;;6.23;100.00;102446.34;5088908;28;20042;-68
2022/01/29 06:14:12;;;;;;;32.65;17.23;;;;;;;6.25;100.00;102445.25;5089444;28;20042;-67
2022/01/29 06:16:38;;;;;;;31.02;14.50;;;;;;;6.26;100.00;102438.13;5089733;28;20088;-67
2022/01/29 06:19:03;;;;;;;32.78;15.98;;;;;;;6.26;100.00;102451.38;5068850;28;20131;-67
2022/01/29 06:21:28;;;;;;;42.70;18.33;;;;;;;6.28;100.00;102439.69;5070061;28;20036;-67
2022/01/29 06:23:54;;;;;;;35.80;17.17;;;;;;;6.29;100.00;102444.03;5070099;28;20032;-67
2022/01/29 06:26:19;;;;;;;35.50;16.27;;;;;;;6.31;100.00;102436.81;5069709;28;20079;-67
2022/01/29 06:28:44;;;;;;;33.22;15.98;;;;;;;6.32;100.00;102432.34;5087074;28;20032;-67
2022/01/29 06:31:10;;;;;;;31.77;16.02;;;;;;;6.34;100.00;102425.06;5089109;28;20032;-67
2022/01/29 06:33:36;;;;;;;37.90;17.23;;;;;;;6.35;100.00;102438.19;5088569;28;20040;-68
2022/01/29 06:36:02;;;;;;;30.20;13.88;;;;;;;6.37;100.00;102430.13;5088952;28;20027;-67
2022/01/29 06:38:28;;;;;;;33.65;16.75;;;;;;;6.38;100.00;102423.03;5089209;28;20382;-68
2022/01/29 06:40:53;;;;;;;32.15;16.50;;;;;;;6.36;100.00;102417.84;5089112;28;20028;-67
2022/01/29 06:43:19;;;;;;;37.03;15.43;;;;;;;6.41;100.00;102428.06;5089143;28;20117;-68
2022/01/29 06:45:46;;;;;;;34.97;16.15;;;;;;;6.36;100.00;102416.03;5088936;28;20028;-67
2022/01/29 06:48:12;;;;;;;35.38;16.90;;;;;;;6.44;100.00;102417.19;5089178;28;20397;-68
2022/01/29 06:50:38;;;;;;;33.50;15.10;;;;;;;6.44;100.00;102415.38;5069728;28;20031;-67
2022/01/29 06:53:05;;;;;;;27.52;13.02;;;;;;;6.44;100.00;102404.78;5069757;28;20033;-68
2022/01/29 06:55:31;;;;;;;36.78;17.63;;;;;;;6.45;100.00;102411.78;5088582;28;20081;-70
2022/01/29 06:57:57;;;;;;;34.40;16.50;;;;;;;6.49;100.00;102407.03;5088592;28;20036;-70
2022/01/29 07:00:22;;;;;;;37.55;17.40;;;;;;;6.50;100.00;102403.44;5089112;28;20034;-70
2022/01/29 07:02:48;;;;;;;32.05;16.17;;;;;;;6.49;100.00;102396.44;5088868;28;20028;-71
2022/01/29 07:05:13;;;;;;;35.50;17.17;;;;;;;6.53;100.00;102396.03;5088266;28;20115;-70
2022/01/29 07:07:39;;;;;;;34.00;14.10;;;;;;;6.55;100.00;102402.06;5088807;28;20032;-70
2022/01/29 07:10:06;;;;;;;30.40;16.70;;;;;;;6.54;100.00;102392.41;5088982;28;20032;-70
2022/01/29 07:12:32;;;;;;;36.05;18.48;;;;;;;6.58;100.00;102395.66;5088960;28;20127;-71
2022/01/29 07:14:57;;;;;;;35.63;19.08;;;;;;;6.55;100.00;102383.50;5088686;28;20115;-71
2022/01/29 07:17:24;;;;;;;34.22;15.93;;;;;;;6.61;100.00;102386.59;5087581;28;20403;-71
2022/01/29 07:19:51;;;;;;;35.35;17.33;;;;;;;6.61;100.00;102383.94;5088768;28;20043;-71
2022/01/29 07:22:17;;;;;;;32.53;16.88;;;;;;;6.59;100.00;102384.06;5088890;28;20035;-71
2022/01/29 07:24:43;;;;;;;35.08;18.40;;;;;;;6.63;100.00;102387.28;5089665;28;20390;-71
2022/01/29 07:27:08;;;;;;;36.50;19.20;;;;;;;6.66;100.00;102397.66;5092444;28;20056;-71
2022/01/29 07:29:33;;;;;;;38.10;16.75;;;;;;;6.68;100.00;102387.72;5092632;28;20043;-71
2022/01/29 07:32:00;;;;;;;35.15;16.52;;;;;;;6.69;100.00;102394.72;5092488;28;20510;-71
2022/01/29 07:34:26;;;;;;;34.33;17.20;;;;;;;6.70;100.00;102393.75;5092435;28;20024;-71
2022/01/29 07:36:52;;;;;;;31.23;15.70;;;;;;;6.67;100.00;102391.34;5091804;28;20024;-71
2022/01/29 07:39:18;;;;;;;31.45;15.15;;;;;;;6.70;100.00;102388.44;5092325;28;20100;-71
2022/01/29 07:41:44;;;;;;;33.97;17.52;;;;;;;6.71;100.00;102385.66;5092272;28;20062;-71
2022/01/29 07:44:10;;;;;;;32.72;15.93;;;;;;;6.70;100.00;102385.78;5092127;28;20032;-71
2022/01/29 07:46:35;;;;;;;33.10;15.20;;;;;;;6.69;100.00;102377.00;5092169;28;20135;-71
2022/01/29 07:49:01;;;;;;;35.88;17.00;;;;;;;6.77;100.00;102381.63;5092019;28;20131;-70
2022/01/29 07:51:26;;;;;;;29.73;15.50;;;;;;;6.78;100.00;102385.94;5073322;28;20032;-70
2022/01/29 07:53:51;;;;;;;31.92;15.30;;;;;;;6.80;100.00;102379.53;5091631;28;20028;-71
2022/01/29 07:56:20;;;;;;;34.88;15.90;;;;;;;6.80;100.00;102370.75;5092047;28;20070;-71
2022/01/29 07:58:45;;;;;;;34.33;15.77;;;;;;;6.84;100.00;102377.47;5090643;28;20063;-71
2022/01/29 08:01:12;;;;;;;30.95;14.95;;;;;;;6.87;100.00;102374.56;5072462;28;20609;-71
2022/01/29 08:03:38;;;;;;;33.28;15.77;;;;;;;6.91;100.00;102369.81;5091753;28;20379;-71
2022/01/29 08:06:03;;;;;;;35.40;18.02;;;;;;;6.88;100.00;102357.66;5091285;28;20024;-71
2022/01/29 08:08:29;;;;;;;31.38;15.73;;;;;;;6.96;100.00;102354.34;5091276;28;20385;-71
2022/01/29 08:10:54;;;;;;;31.67;15.02;;;;;;;6.99;100.00;102356.72;5091763;28;20448;-69
2022/01/29 08:13:19;;;;;;;32.35;15.30;;;;;;;7.02;100.00;102345.81;5091740;28;20093;-68
2022/01/29 08:15:45;;;;;;;29.80;14.07;;;;;;;7.03;100.00;102353.66;5091710;28;20028;-68
2022/01/29 08:18:10;;;;;;;34.08;15.90;;;;;;;7.07;100.00;102348.06;5090487;28;20041;-68
2022/01/29 08:20:35;;;;;;;32.83;14.68;;;;;;;7.13;100.00;102347.53;5091136;28;20027;-68
2022/01/29 08:23:07;;;;;;;36.80;16.98;;;;;;;7.16;100.00;102344.63;5091403;28;20341;-68
2022/01/29 08:25:32;;;;;;;32.88;15.23;;;;;;;7.16;100.00;102334.84;5091681;28;20036;-68
2022/01/29 08:27:57;;;;;;;31.77;16.35;;;;;;;7.20;100.00;102332.72;5089926;28;20458;-68
2022/01/29 08:30:23;;;;;;;33.08;17.73;;;;;;;7.24;100.00;102334.16;5091488;28;20032;-68
2022/01/29 08:32:48;;;;;;;32.83;15.27;;;;;;;7.28;100.00;102337.34;5090065;28;20082;-68
2022/01/29 08:35:15;;;;;;;30.98;15.43;;;;;;;7.32;100.00;102336.09;5090963;28;20063;-68
2022/01/29 08:37:41;;;;;;;29.75;13.90;;;;;;;7.33;100.00;102329.81;5091070;28;20160;-68
2022/01/29 08:40:08;;;;;;;30.30;15.43;;;;;;;7.37;100.00;102323.25;5091210;28;20035;-68
2022/01/29 08:42:34;;;;;;;31.20;16.45;;;;;;;7.41;100.00;102319.34;5091185;28;20079;-68
2022/01/29 08:45:00;;;;;;;28.23;13.15;;;;;;;7.44;100.00;102330.53;5090866;28;20023;-68
2022/01/29 08:47:26;;;;;;;32.03;17.02;;;;;;;7.47;100.00;102324.94;5091139;28;20032;-68
2022/01/29 08:49:51;;;;;;;32.45;15.30;;;;;;;7.51;100.00;102329.97;5069549;28;20035;-69
2022/01/29 08:52:17;;;;;;;30.80;14.00;;;;;;;7.55;100.00;102326.91;5090799;28;20072;-69
2022/01/29 08:54:42;;;;;;;31.48;15.75;;;;;;;7.58;100.00;102317.81;5089760;28;20036;-69
2022/01/29 08:57:08;;;;;;;28.63;13.30;;;;;;;7.60;100.00;102305.25;5090618;28;20081;-69
2022/01/29 08:59:33;;;;;;;26.08;13.48;;;;;;;7.63;100.00;102308.44;5090957;28;20115;-69
2022/01/29 09:01:58;;;;;;;32.50;15.27;;;;;;;7.68;100.00;102308.03;5090812;28;20913;-68
2022/01/29 09:04:24;;;;;;;27.35;14.27;;;;;;;7.70;100.00;102303.38;5090630;28;20467;-68
2022/01/29 09:06:49;;;;;;;26.77;13.55;;;;;;;7.72;100.00;102305.91;5090801;28;20035;-68
2022/01/29 09:09:20;;;;;;;31.13;18.05;;;;;;;7.71;100.00;102302.44;5090371;28;20407;-69
2022/01/29 09:11:46;;;;;;;25.33;13.23;;;;;;;7.73;100.00;102291.63;5090839;28;20039;-69
2022/01/29 09:14:11;;;;;;;33.65;15.73;;;;;;;7.76;100.00;102305.50;5090285;28;20023;-69
2022/01/29 09:16:37;;;;;;;26.83;14.60;;;;;;;7.76;100.00;102294.88;5090406;28;20021;-69
2022/01/29 09:19:02;;;;;;;29.70;15.00;;;;;;;7.77;100.00;102293.03;5090414;28;20566;-69
2022/01/29 09:21:27;;;;;;;27.52;14.18;;;;;;;7.77;100.00;102291.22;5084027;28;20028;-73
2022/01/29 09:23:56;;;;;;;28.85;14.02;;;;;;;7.60;100.00;102254.78;5070864;28;20127;-71
2022/01/29 09:26:22;;;;;;;29.75;15.95;;;;;;;7.82;100.00;102290.81;5080384;28;20967;-71
2022/01/29 09:28:47;;;;;;;29.67;14.88;;;;;;;7.85;100.00;102290.50;5070929;28;20032;-73
2022/01/29 09:31:13;;;;;;;30.88;15.20;;;;;;;7.86;100.00;102287.72;5070872;28;20055;-71
2022/01/29 09:33:38;;;;;;;30.85;15.25;;;;;;;7.89;100.00;102294.56;5070736;28;20032;-71
2022/01/29 09:36:04;;;;;;;32.33;13.70;;;;;;;7.89;100.00;102295.41;5070848;28;20367;-71
2022/01/29 09:38:29;;;;;;;27.25;14.30;;;;;;;7.95;100.00;102293.16;5070743;28;20082;-71
2022/01/29 09:40:55;;;;;;;37.50;14.25;;;;;;;8.01;100.00;102297.88;5070407;28;20056;-71
2022/01/29 09:43:25;;;;;;;26.25;14.15;;;;;;;8.04;100.00;102305.56;5089740;28;20043;-71
2022/01/29 09:45:51;;;;;;;28.83;15.63;;;;;;;8.08;100.00;102299.81;5070413;28;20118;-71
2022/01/29 09:48:21;;;;;;;27.27;12.80;;;;;;;8.11;100.00;102288.91;5070053;28;20032;-71
2022/01/29 09:50:47;;;;;;;26.83;13.63;;;;;;;8.15;100.00;102294.78;5090090;28;20028;-71
2022/01/29 09:53:12;;;;;;;27.02;13.50;;;;;;;8.17;100.00;102295.44;5089925;28;20081;-71
2022/01/29 09:55:37;;;;;;;30.65;14.32;;;;;;;8.19;100.00;102298.81;5089828;28;20028;-71
2022/01/29 09:58:03;;;;;;;24.80;12.07;;;;;;;8.23;100.00;102299.38;5089855;28;20085;-71
2022/01/29 10:00:28;;;;;;;27.42;14.63;;;;;;;8.24;100.00;102298.38;5089865;28;20032;-71
2022/01/29 10:03:20;;;;;;;25.80;13.15;;;;;;;8.26;100.00;102293.75;5089766;28;20421;-71
2022/01/29 10:05:51;;;;;;;27.73;13.40;;;;;;;8.25;100.00;102298.25;5085348;28;20040;-72
2022/01/29 10:08:18;;;;;;;25.25;11.65;;;;;;;8.29;100.00;102296.13;5070311;28;20028;-71
2022/01/29 10:10:54;;;;;;;25.98;13.27;;;;;;;8.31;100.00;102295.00;5079250;28;20577;-78
2022/01/29 10:13:28;;;;;;;25.75;12.57;;;;;;;8.35;100.00;102298.19;5079872;28;20023;-77
2022/01/29 10:16:13;;;;;;;22.75;11.68;;;;;;;8.40;100.00;102279.16;5080846;28;20035;-78
2022/01/29 10:18:40;;;;;;;25.35;13.18;;;;;;;8.43;100.00;102285.03;5081556;28;20059;-77
2022/01/29 10:21:32;;;;;;;24.42;12.73;;;;;;;8.47;100.00;102281.09;5082281;28;20035;-76
2022/01/29 10:24:09;;;;;;;23.55;11.25;;;;;;;8.54;100.00;102276.00;5074028;28;20052;-78
2022/01/29 10:26:40;;;;;;;23.23;11.15;;;;;;;8.59;100.00;102268.44;5080374;28;20048;-77
2022/01/29 10:29:08;;;;;;;24.20;11.15;;;;;;;8.62;100.00;102280.59;5080209;28;20032;-77
2022/01/29 10:31:56;;;;;;;22.08;9.27;;;;;;;8.67;100.00;102268.53;5080641;28;20024;-77
2022/01/29 10:34:30;;;;;;;25.35;10.98;;;;;;;8.69;100.00;102255.09;5079742;28;20513;-77
2022/01/29 10:37:25;;;;;;;24.52;12.13;;;;;;;8.78;100.00;102246.22;5080932;28;20387;-77
2022/01/29 10:39:50;;;;;;;24.80;11.43;;;;;;;8.84;100.00;102236.78;5074980;28;20472;-77
2022/01/29 10:42:19;;;;;;;20.98;9.73;;;;;;;8.93;100.00;102241.19;5081464;28;20028;-78
2022/01/29 10:44:46;;;;;;;22.58;11.48;;;;;;;9.03;100.00;102251.78;5081639;28;20047;-77
2022/01/29 10:47:12;;;;;;;18.90;9.45;;;;;;;9.05;100.00;102244.47;5080866;28;20078;-78
2022/01/29 10:49:44;;;;;;;22.02;10.05;;;;;;;9.10;100.00;102240.38;5080893;28;20028;-77
2022/01/29 10:52:14;;;;;;;21.65;11.95;;;;;;;9.07;100.00;102230.03;5083108;28;20421;-78
2022/01/29 10:54:44;;;;;;;23.10;10.65;;;;;;;9.15;100.00;102245.25;5081744;28;20064;-78
2022/01/29 10:57:12;;;;;;;20.00;10.27;;;;;;;9.10;99.77;102231.56;5079833;28;20071;-77
2022/01/29 10:59:53;;;;;;;21.83;10.93;;;;;;;9.14;99.89;102230.25;5085714;28;20036;-78
2022/01/29 11:02:20;;;;;;;;;;;;;;;9.15;100.00;102231.94;5086075;28;20486;-78
2022/01/29 11:04:47;;;;;;;21.30;9.35;;;;;;;9.12;100.00;102242.88;5084593;28;19919;-78
2022/01/29 11:07:17;;;;;;;22.08;9.98;;;;;;;9.12;99.41;102219.75;5085251;28;20017;-78
2022/01/29 11:09:45;;;;;;;19.38;8.70;;;;;;;9.15;99.78;102226.59;5082425;28;20035;-78
2022/01/29 11:12:12;;;;;;;19.88;8.43;;;;;;;9.18;98.86;102219.13;5085239;28;20031;-78
2022/01/29 11:14:40;;;;;;;17.55;9.57;;;;;;;9.19;99.00;102212.81;5084909;28;20027;-78
2022/01/29 11:17:07;;;;;;;18.73;9.18;;;;;;;9.23;98.96;102205.38;5084634;28;20024;-78
2022/01/29 11:19:33;;;;;;;16.65;7.93;;;;;;;9.31;98.21;102213.41;5083939;28;20035;-77
2022/01/29 11:22:06;;;;;;;18.73;6.32;;;;;;;9.33;97.71;102200.81;5085594;28;20383;-77
2022/01/29 11:24:33;;;;;;;12.15;6.07;;;;;;;9.29;97.26;102190.59;5083695;28;20040;-77